Time;durP1;ratioP1;P1;durP2;ratioP2;P2;SDS_P1;SDS_P2;PMS_P1;PMS_P2;Temp;Humidity;BMP_temperature;BMP_pressure;BME280_temperature;BME280_humidity;BME280_pressure;Samples;Min_cycle;Max_cycle;Signal;HPM_P1;HPM_P2
2022/06/21 00:01:48;;;;;;;8.43;4.70;;;16.10;99.90;;;;;;5044337;28;20389;-73
2022/06/21 00:04:14;;;;;;;5.75;4.13;;;16.10;99.90;;;;;;5046827;28;20096;-73
2022/06/21 00:06:40;;;;;;;8.68;5.35;;;15.90;99.90;;;;;;5045630;28;20071;-73
2022/06/21 00:09:05;;;;;;;7.30;4.60;;;16.00;99.90;;;;;;5048110;28;20497;-73
2022/06/21 00:11:33;;;;;;;6.25;5.32;;;15.90;99.90;;;;;;5045228;28;20052;-73
2022/06/21 00:13:59;;;;;;;7.18;5.05;;;15.80;99.90;;;;;;5045280;28;20128;-73
2022/06/21 00:16:27;;;;;;;8.65;5.15;;;15.80;99.90;;;;;;5045033;28;20112;-72
2022/06/21 00:18:54;;;;;;;6.90;4.45;;;15.80;99.90;;;;;;5045502;28;20018;-72
2022/06/21 00:21:24;;;;;;;9.60;4.85;;;15.80;99.90;;;;;;5043797;28;20116;-72
2022/06/21 00:23:52;;;;;;;8.25;4.85;;;15.80;99.90;;;;;;5044377;28;20013;-72
2022/06/21 00:26:20;;;;;;;9.15;5.05;;;15.80;99.90;;;;;;5045445;28;20032;-72
2022/06/21 00:28:45;;;;;;;9.18;5.03;;;15.70;99.90;;;;;;5047039;28;20021;-73
2022/06/21 00:31:18;;;;;;;6.32;5.30;;;15.70;99.90;;;;;;5045040;28;20028;-73
2022/06/21 00:33:44;;;;;;;6.80;5.10;;;15.70;99.90;;;;;;5042065;28;20025;-72
2022/06/21 00:36:21;;;;;;;9.32;5.00;;;15.80;99.90;;;;;;5044504;28;20078;-73
2022/06/21 00:38:47;;;;;;;7.80;5.25;;;15.90;99.90;;;;;;5043972;28;20037;-73
2022/06/21 00:41:15;;;;;;;9.00;5.78;;;15.80;99.90;;;;;;5044479;28;20040;-73
2022/06/21 00:43:45;;;;;;;6.40;5.30;;;15.80;99.90;;;;;;5045989;28;20021;-73
2022/06/21 00:46:40;;;;;;;10.40;5.38;;;15.70;99.90;;;;;;5044946;28;20025;-72
2022/06/21 00:49:23;;;;;;;11.38;5.50;;;15.70;99.90;;;;;;5044557;28;20530;-74
2022/06/21 00:51:51;;;;;;;11.85;6.10;;;15.80;99.90;;;;;;5043799;28;20055;-72
2022/06/21 00:54:38;;;;;;;10.43;5.43;;;15.80;99.90;;;;;;5042907;28;20029;-73
2022/06/21 00:57:12;;;;;;;10.48;5.03;;;15.70;99.90;;;;;;5043047;28;20025;-72
2022/06/21 00:59:37;;;;;;;9.85;5.88;;;15.50;99.90;;;;;;5047766;28;20044;-72
2022/06/21 01:02:14;;;;;;;9.30;5.82;;;15.50;99.90;;;;;;5045394;28;20025;-72
2022/06/21 01:04:45;;;;;;;7.45;5.40;;;15.60;99.90;;;;;;5044133;28;20028;-71
2022/06/21 01:07:12;;;;;;;12.40;5.50;;;15.60;99.90;;;;;;5043844;28;20020;-73
2022/06/21 01:09:53;;;;;;;10.20;5.85;;;15.60;99.90;;;;;;5043761;28;20462;-72
2022/06/21 01:12:25;;;;;;;8.35;6.07;;;15.70;99.90;;;;;;5045185;28;20104;-72
2022/06/21 01:14:58;;;;;;;9.38;5.78;;;15.60;99.90;;;;;;5043958;28;20021;-72
2022/06/21 01:17:25;;;;;;;12.98;6.90;;;15.60;99.90;;;;;;5044109;28;20025;-72
2022/06/21 01:20:01;;;;;;;9.32;5.78;;;15.60;99.90;;;;;;5043844;28;20060;-72
2022/06/21 01:22:47;;;;;;;13.02;6.40;;;15.60;99.90;;;;;;5043341;28;20022;-72
2022/06/21 01:25:43;;;;;;;10.02;6.03;;;15.60;99.90;;;;;;5042054;28;20032;-72
2022/06/21 01:28:10;;;;;;;11.15;6.28;;;15.50;99.90;;;;;;5044803;28;20436;-70
2022/06/21 01:30:38;;;;;;;10.32;6.50;;;15.40;99.90;;;;;;5049443;28;20027;-72
2022/06/21 01:33:05;;;;;;;13.15;6.13;;;15.50;99.90;;;;;;5046080;28;20039;-72
2022/06/21 01:35:36;;;;;;;10.88;6.20;;;15.40;99.90;;;;;;5052988;28;20055;-72
2022/06/21 01:38:05;;;;;;;12.05;6.20;;;15.40;99.90;;;;;;5052892;28;20116;-72
2022/06/21 01:40:35;;;;;;;9.52;6.45;;;15.30;99.90;;;;;;5053479;28;20072;-72
2022/06/21 01:43:08;;;;;;;10.63;6.55;;;15.30;99.90;;;;;;5053975;28;20481;-72
2022/06/21 01:45:39;;;;;;;12.98;6.82;;;15.30;99.90;;;;;;5053940;28;20037;-72
2022/06/21 01:48:21;;;;;;;11.48;6.43;;;15.30;99.90;;;;;;5053190;28;20021;-71
2022/06/21 01:50:49;;;;;;;9.38;6.68;;;15.30;99.90;;;;;;5054048;28;20059;-71
2022/06/21 01:53:19;;;;;;;7.70;6.90;;;15.20;99.90;;;;;;5053408;28;20013;-72
2022/06/21 01:55:51;;;;;;;10.45;6.95;;;15.20;99.90;;;;;;5043135;28;20033;-72
2022/06/21 01:58:20;;;;;;;10.98;7.15;;;15.20;99.90;;;;;;5047838;28;20025;-72
2022/06/21 02:00:55;;;;;;;11.07;7.18;;;15.10;99.90;;;;;;5050926;28;20040;-72
2022/06/21 02:03:25;;;;;;;11.07;7.32;;;15.20;99.90;;;;;;5053186;28;20021;-73
2022/06/21 02:05:55;;;;;;;11.57;7.20;;;15.20;99.90;;;;;;5053430;28;20033;-73
2022/06/21 02:08:25;;;;;;;9.88;6.90;;;15.10;99.90;;;;;;5053084;28;20028;-73
2022/06/21 02:10:56;;;;;;;11.25;7.13;;;15.10;99.90;;;;;;5052564;28;20496;-72
2022/06/21 02:13:31;;;;;;;11.18;7.20;;;15.10;99.90;;;;;;5052621;28;20067;-73
2022/06/21 02:16:01;;;;;;;12.15;6.50;;;14.80;99.90;;;;;;5052035;28;20119;-73
2022/06/21 02:18:30;;;;;;;9.65;6.03;;;14.80;99.90;;;;;;5052868;28;20021;-73
2022/06/21 02:21:04;;;;;;;10.93;7.00;;;14.70;99.90;;;;;;5052742;28;20036;-73
2022/06/21 02:23:30;;;;;;;12.48;5.85;;;14.50;99.90;;;;;;5053079;28;20033;-73
2022/06/21 02:25:58;;;;;;;10.48;5.95;;;14.40;99.90;;;;;;5051958;28;20024;-72
2022/06/21 02:28:28;;;;;;;11.23;6.57;;;14.50;99.90;;;;;;5052892;28;20465;-72
2022/06/21 02:30:56;;;;;;;11.63;6.57;;;14.50;99.90;;;;;;5064205;28;20017;-72
2022/06/21 02:33:25;;;;;;;10.98;6.60;;;14.40;99.90;;;;;;5048342;28;20097;-72
2022/06/21 02:36:04;;;;;;;10.15;7.13;;;14.30;99.90;;;;;;5051904;28;20048;-72
2022/06/21 02:38:35;;;;;;;10.18;7.63;;;14.40;99.90;;;;;;5053112;28;20100;-72
2022/06/21 02:41:06;;;;;;;10.52;7.18;;;14.40;99.90;;;;;;5051926;28;20057;-72
2022/06/21 02:43:48;;;;;;;8.63;6.75;;;14.50;99.90;;;;;;5052689;28;20123;-72
2022/06/21 02:46:22;;;;;;;12.00;7.03;;;14.60;99.90;;;;;;5038301;28;20060;-72
2022/06/21 02:48:56;;;;;;;11.82;8.23;;;14.60;99.90;;;;;;5052200;28;20021;-72
2022/06/21 02:51:38;;;;;;;8.65;7.10;;;14.60;99.90;;;;;;5052250;28;20025;-71
2022/06/21 02:54:18;;;;;;;8.30;7.32;;;14.50;99.90;;;;;;5052926;28;20036;-72
2022/06/21 02:56:53;;;;;;;9.35;7.15;;;14.50;99.90;;;;;;5052766;28;20116;-72
2022/06/21 02:59:19;;;;;;;10.98;7.68;;;14.50;99.90;;;;;;5052525;28;20029;-72
2022/06/21 03:01:49;;;;;;;13.52;7.30;;;14.50;99.90;;;;;;5033563;28;20037;-73
2022/06/21 03:04:22;;;;;;;13.48;7.97;;;14.50;99.90;;;;;;5044989;28;20428;-72
2022/06/21 03:06:50;;;;;;;10.55;8.13;;;14.50;99.90;;;;;;5048428;28;20056;-72
2022/06/21 03:09:22;;;;;;;10.30;7.53;;;14.40;99.90;;;;;;5049182;28;20017;-72
2022/06/21 03:11:51;;;;;;;11.00;8.13;;;14.40;99.90;;;;;;5052520;28;20017;-72
2022/06/21 03:14:25;;;;;;;8.98;6.68;;;14.40;99.90;;;;;;5052362;28;20056;-71
2022/06/21 03:16:52;;;;;;;11.75;8.32;;;14.40;99.90;;;;;;5051925;28;20025;-73
2022/06/21 03:19:29;;;;;;;9.68;8.05;;;14.40;99.90;;;;;;5052348;28;20029;-72
2022/06/21 03:21:55;;;;;;;11.38;8.18;;;14.40;99.90;;;;;;5052385;28;20482;-73
2022/06/21 03:24:23;;;;;;;10.23;7.28;;;14.30;99.90;;;;;;5052679;28;20039;-72
2022/06/21 03:27:03;;;;;;;15.02;7.97;;;14.30;99.90;;;;;;5050958;28;20499;-72
2022/06/21 03:29:29;;;;;;;10.57;8.60;;;14.10;99.90;;;;;;5050968;28;20021;-72
2022/06/21 03:31:57;;;;;;;10.68;8.02;;;14.00;99.90;;;;;;5038669;28;20105;-72
2022/06/21 03:34:24;;;;;;;11.25;7.75;;;14.00;99.90;;;;;;5034819;28;20374;-70
2022/06/21 03:36:50;;;;;;;12.07;7.43;;;14.00;99.90;;;;;;5034509;28;20037;-71
2022/06/21 03:39:20;;;;;;;11.30;7.60;;;14.00;99.90;;;;;;5053461;28;20029;-72
2022/06/21 03:41:48;;;;;;;10.73;7.57;;;14.10;99.90;;;;;;5055941;28;20041;-72
2022/06/21 03:44:16;;;;;;;10.18;7.18;;;14.10;99.90;;;;;;5051158;28;20048;-72
2022/06/21 03:46:51;;;;;;;11.48;8.02;;;13.90;99.90;;;;;;5055182;28;20048;-72
2022/06/21 03:49:57;;;;;;;9.98;7.30;;;13.90;99.90;;;;;;5054815;28;20021;-72
2022/06/21 03:52:49;;;;;;;14.10;7.90;;;14.00;99.90;;;;;;5054820;28;20041;-72
2022/06/21 03:55:26;;;;;;;13.77;8.73;;;14.00;99.90;;;;;;5054821;28;20021;-72
2022/06/21 03:58:20;;;;;;;10.90;8.38;;;14.00;99.90;;;;;;5053314;28;20112;-72
2022/06/21 04:00:49;;;;;;;11.70;8.50;;;13.90;99.90;;;;;;5061837;28;20033;-72
2022/06/21 04:03:29;;;;;;;12.43;8.35;;;13.90;99.90;;;;;;5074977;28;20384;-71
2022/06/21 04:06:03;;;;;;;10.35;7.97;;;13.90;99.90;;;;;;5060365;28;20020;-72
2022/06/21 04:08:43;;;;;;;12.23;7.72;;;13.90;99.90;;;;;;5055442;28;20060;-72
2022/06/21 04:11:21;;;;;;;8.85;7.57;;;13.90;99.90;;;;;;5055394;28;20040;-72
2022/06/21 04:14:00;;;;;;;11.60;8.00;;;13.90;99.90;;;;;;5055135;28;20032;-72
2022/06/21 04:16:40;;;;;;;9.45;7.90;;;13.90;99.90;;;;;;5055644;28;20104;-70
2022/06/21 04:19:41;;;;;;;9.88;6.97;;;13.80;99.90;;;;;;5035478;28;20028;-72
2022/06/21 04:22:25;;;;;;;9.32;7.05;;;13.70;99.90;;;;;;5035598;28;20045;-72
2022/06/21 04:24:55;;;;;;;9.27;6.70;;;13.70;99.90;;;;;;5074801;28;20021;-72
2022/06/21 04:27:46;;;;;;;12.77;8.18;;;13.70;99.90;;;;;;5054823;28;20029;-72
2022/06/21 04:30:23;;;;;;;10.48;7.25;;;13.80;99.90;;;;;;5055269;28;20028;-72
2022/06/21 04:32:59;;;;;;;12.73;9.45;;;13.80;99.90;;;;;;5053193;28;20032;-72
2022/06/21 04:35:34;;;;;;;11.30;8.20;;;13.80;99.90;;;;;;5054219;28;20253;-72
2022/06/21 04:38:29;;;;;;;12.63;8.75;;;13.80;99.90;;;;;;5035234;28;20025;-72
2022/06/21 04:41:21;;;;;;;13.52;7.78;;;13.80;99.90;;;;;;5033999;28;20110;-73
2022/06/21 04:43:57;;;;;;;10.60;6.95;;;13.80;99.90;;;;;;5043598;28;20075;-72
2022/06/21 04:46:41;;;;;;;11.20;8.30;;;13.80;99.90;;;;;;5058446;28;20039;-73
2022/06/21 04:49:21;;;;;;;12.40;8.80;;;13.80;99.90;;;;;;5054601;28;20068;-73
2022/06/21 04:51:57;;;;;;;14.57;9.70;;;13.90;99.90;;;;;;5052427;28;20021;-73
2022/06/21 04:54:25;;;;;;;13.40;9.48;;;13.90;99.90;;;;;;5036051;28;20087;-73
2022/06/21 04:57:27;;;;;;;13.98;9.30;;;14.00;99.90;;;;;;5049197;28;20531;-73
2022/06/21 05:00:03;;;;;;;12.20;9.05;;;14.00;99.90;;;;;;5054523;28;20025;-73
2022/06/21 05:02:34;;;;;;;15.40;10.85;;;14.00;99.90;;;;;;5054472;28;20028;-72
2022/06/21 05:05:13;;;;;;;12.75;9.93;;;14.10;99.90;;;;;;5073657;28;20016;-72
2022/06/21 05:07:49;;;;;;;15.95;10.73;;;14.10;99.90;;;;;;5041526;28;20025;-72
2022/06/21 05:10:21;;;;;;;14.23;9.50;;;14.10;99.90;;;;;;5054891;28;20050;-72
2022/06/21 05:12:49;;;;;;;13.90;8.95;;;14.20;99.90;;;;;;5053807;28;20043;-72
2022/06/21 05:15:19;;;;;;;18.92;10.80;;;14.20;99.90;;;;;;5051765;28;20021;-73
2022/06/21 05:17:57;;;;;;;13.52;10.40;;;14.20;99.90;;;;;;5050913;28;20021;-72
2022/06/21 05:20:28;;;;;;;13.57;10.20;;;14.30;99.90;;;;;;5053997;28;20119;-73
2022/06/21 05:22:58;;;;;;;14.27;10.50;;;14.20;99.90;;;;;;5053606;28;20104;-72
2022/06/21 05:25:37;;;;;;;16.65;10.63;;;14.20;99.90;;;;;;5053845;28;20526;-72
2022/06/21 05:28:37;;;;;;;14.68;10.18;;;14.30;99.90;;;;;;5054267;28;20044;-73
2022/06/21 05:31:14;;;;;;;15.25;10.57;;;14.30;99.90;;;;;;5053884;28;20438;-73
2022/06/21 05:33:46;;;;;;;13.20;10.30;;;14.30;99.90;;;;;;5053991;28;20100;-72
2022/06/21 05:36:20;;;;;;;18.90;12.05;;;14.40;99.90;;;;;;5052519;28;20028;-73
2022/06/21 05:38:51;;;;;;;20.98;11.88;;;14.40;99.90;;;;;;5053970;28;20567;-72
2022/06/21 05:41:37;;;;;;;18.77;14.10;;;14.50;99.90;;;;;;5053693;28;20028;-72
2022/06/21 05:44:41;;;;;;;16.08;11.48;;;14.50;99.90;;;;;;5041316;28;20041;-72
2022/06/21 05:47:28;;;;;;;15.75;12.10;;;14.50;99.90;;;;;;5034016;28;20041;-72
2022/06/21 05:49:57;;;;;;;22.90;13.27;;;14.60;99.90;;;;;;5035449;28;20401;-71
2022/06/21 05:52:29;;;;;;;15.02;9.73;;;14.60;99.90;;;;;;5032783;28;20485;-72
2022/06/21 05:55:28;;;;;;;17.80;11.68;;;14.60;99.90;;;;;;5033290;28;20100;-71
2022/06/21 05:57:59;;;;;;;17.38;13.73;;;14.60;99.90;;;;;;5053325;28;20469;-72
2022/06/21 06:00:37;;;;;;;15.02;10.15;;;14.70;99.90;;;;;;5053738;28;20028;-72
2022/06/21 06:03:27;;;;;;;20.95;12.25;;;14.80;99.90;;;;;;5053355;28;20025;-71
2022/06/21 06:05:55;;;;;;;21.90;13.13;;;14.80;99.90;;;;;;5052223;28;20035;-71
2022/06/21 06:08:23;;;;;;;20.58;12.50;;;14.90;99.90;;;;;;5042041;28;20021;-71
2022/06/21 06:10:50;;;;;;;20.15;13.23;;;15.00;99.90;;;;;;5053240;28;20351;-72
2022/06/21 06:13:21;;;;;;;21.83;12.13;;;15.10;99.90;;;;;;5050892;28;20167;-71
2022/06/21 06:15:55;;;;;;;16.65;10.18;;;15.20;99.90;;;;;;5053056;28;20076;-72
2022/06/21 06:18:31;;;;;;;17.90;10.88;;;15.20;99.90;;;;;;5051809;28;20082;-70
2022/06/21 06:21:15;;;;;;;15.77;11.35;;;15.30;99.90;;;;;;5031991;28;20060;-71
2022/06/21 06:23:55;;;;;;;22.33;12.73;;;15.40;99.90;;;;;;5032909;28;20022;-71
2022/06/21 06:26:29;;;;;;;17.20;10.63;;;15.50;99.90;;;;;;5045189;28;20059;-71
2022/06/21 06:28:58;;;;;;;17.30;9.77;;;15.60;99.90;;;;;;5053018;28;20021;-72
2022/06/21 06:31:35;;;;;;;11.63;8.52;;;15.70;99.90;;;;;;5052317;28;20040;-71
2022/06/21 06:34:05;;;;;;;12.75;8.18;;;15.80;99.90;;;;;;5033240;28;20025;-72
2022/06/21 06:36:40;;;;;;;17.50;8.43;;;15.90;99.90;;;;;;5033508;28;20474;-72
2022/06/21 06:39:25;;;;;;;14.43;7.85;;;16.00;99.90;;;;;;5032879;28;20071;-72
2022/06/21 06:42:08;;;;;;;13.63;7.80;;;16.10;99.90;;;;;;5033213;28;20021;-72
2022/06/21 06:44:56;;;;;;;;;;;16.30;99.90;;;;;;5045849;28;20043;-72
2022/06/21 06:47:28;;;;;;;8.77;6.68;;;16.40;99.90;;;;;;5048059;28;19995;-72
2022/06/21 06:49:56;;;;;;;11.80;7.13;;;16.60;99.90;;;;;;5050996;28;20067;-72
2022/06/21 06:52:36;;;;;;;14.13;7.55;;;16.70;99.90;;;;;;5033183;28;20707;-72
2022/06/21 06:55:34;;;;;;;7.65;5.60;;;16.80;99.90;;;;;;5033676;28;20028;-72
2022/06/21 06:58:10;;;;;;;12.45;6.65;;;17.00;99.90;;;;;;5050353;28;20370;-72
2022/06/21 07:00:39;;;;;;;11.07;6.13;;;17.20;99.90;;;;;;5052719;28;20462;-73
2022/06/21 07:03:18;;;;;;;9.75;5.57;;;17.30;99.90;;;;;;5052654;28;20021;-72
2022/06/21 07:05:57;;;;;;;11.38;5.70;;;17.40;99.90;;;;;;5044151;28;20026;-72
2022/06/21 07:08:37;;;;;;;7.65;5.93;;;17.50;99.90;;;;;;5056825;28;20036;-72
2022/06/21 07:11:11;;;;;;;10.10;5.57;;;17.80;99.90;;;;;;5039273;28;20075;-72
2022/06/21 07:13:37;;;;;;;8.00;5.15;;;17.90;99.90;;;;;;5039360;28;20033;-73
2022/06/21 07:16:09;;;;;;;12.07;5.88;;;18.00;99.90;;;;;;5039190;28;20040;-72
2022/06/21 07:18:44;;;;;;;6.25;5.03;;;18.10;99.90;;;;;;5039355;28;20028;-73
2022/06/21 07:21:10;;;;;;;14.15;5.35;;;18.10;99.90;;;;;;5039710;28;20112;-73
2022/06/21 07:23:36;;;;;;;7.68;5.15;;;18.00;99.90;;;;;;5054128;28;20120;-73
2022/06/21 07:26:31;;;;;;;12.32;4.95;;;18.20;99.90;;;;;;5058950;28;20452;-73
2022/06/21 07:29:13;;;;;;;11.43;5.50;;;18.30;99.90;;;;;;5057768;28;20021;-73
2022/06/21 07:31:55;;;;;;;9.57;5.03;;;18.50;99.90;;;;;;5058995;28;20017;-73
2022/06/21 07:34:27;;;;;;;7.25;5.00;;;18.50;99.90;;;;;;5058864;28;20025;-73
2022/06/21 07:36:56;;;;;;;9.40;5.55;;;18.60;99.90;;;;;;5043078;28;20040;-72
2022/06/21 07:39:25;;;;;;;8.52;5.40;;;18.80;99.90;;;;;;5045925;28;20035;-73
2022/06/21 07:42:07;;;;;;;9.80;5.78;;;18.90;99.90;;;;;;5039555;28;20037;-73
2022/06/21 07:44:42;;;;;;;8.57;4.95;;;19.00;99.90;;;;;;5038843;28;20048;-73
2022/06/21 07:47:21;;;;;;;9.55;4.68;;;19.10;99.90;;;;;;5046160;28;20493;-74
2022/06/21 07:49:53;;;;;;;7.70;4.72;;;19.10;99.90;;;;;;5057966;28;20032;-72
2022/06/21 07:52:35;;;;;;;9.18;4.93;;;19.30;99.90;;;;;;5056772;28;20013;-73
2022/06/21 07:55:35;;;;;;;9.35;4.25;;;19.20;99.90;;;;;;5057749;28;20602;-72
2022/06/21 07:58:07;;;;;;;6.43;4.13;;;19.60;99.90;;;;;;5058822;28;20067;-71
2022/06/21 08:09:21;;;;;;;6.22;4.00;;;20.10;99.70;;;;;;5057945;28;20094;-71
2022/06/21 08:11:49;;;;;;;7.30;4.25;;;19.90;99.80;;;;;;5057232;28;20024;-71
2022/06/21 08:14:16;;;;;;;7.32;4.60;;;19.80;98.40;;;;;;5058494;28;20029;-72
2022/06/21 08:16:53;;;;;;;6.72;3.47;;;19.90;98.60;;;;;;5051638;28;20974;-71
2022/06/21 08:19:39;;;;;;;4.80;2.95;;;20.00;99.90;;;;;;5044629;28;20017;-71
2022/06/21 08:22:10;;;;;;;6.10;3.33;;;20.00;98.10;;;;;;5043617;28;20351;-71
2022/06/21 08:24:54;;;;;;;6.55;4.03;;;20.00;99.10;;;;;;5061446;28;20025;-71
2022/06/21 08:27:47;;;;;;;10.00;3.78;;;20.30;98.50;;;;;;5060939;28;20104;-71
2022/06/21 08:30:20;;;;;;;;;;;20.40;98.20;;;;;;5054781;28;20454;-69
2022/06/21 08:32:59;;;;;;;6.45;3.38;;;20.40;99.20;;;;;;5056910;28;19913;-71
2022/06/21 08:35:33;;;;;;;8.15;3.92;;;20.90;98.40;;;;;;5059763;28;20017;-71
2022/06/21 08:38:13;;;;;;;7.35;3.90;;;20.80;96.50;;;;;;5063524;28;20036;-71
2022/06/21 08:40:44;;;;;;;6.10;3.90;;;21.10;97.10;;;;;;5055858;28;20032;-71
2022/06/21 08:43:25;;;;;;;5.57;4.22;;;21.20;96.70;;;;;;5062996;28;20029;-71
2022/06/21 08:46:05;;;;;;;6.90;3.72;;;21.20;97.10;;;;;;5071308;28;20033;-70
2022/06/21 08:48:57;;;;;;;7.20;3.95;;;21.10;97.00;;;;;;5048489;28;20022;-70
2022/06/21 08:51:49;;;;;;;4.20;3.10;;;21.30;95.00;;;;;;5058394;28;20543;-71
2022/06/21 08:54:56;;;;;;;7.93;4.07;;;21.30;96.30;;;;;;5053292;28;20098;-71
2022/06/21 08:57:50;;;;;;;9.32;3.63;;;21.10;97.00;;;;;;5043867;28;20342;-72
2022/06/21 09:00:36;;;;;;;5.65;3.33;;;21.20;96.30;;;;;;5056576;28;20024;-71
2022/06/21 09:03:17;;;;;;;5.63;3.08;;;21.30;97.10;;;;;;5064164;28;20075;-71
2022/06/21 09:06:11;;;;;;;8.45;3.80;;;21.40;96.40;;;;;;5067679;28;20290;-71
2022/06/21 09:08:52;;;;;;;6.70;3.58;;;21.40;95.80;;;;;;5046180;28;20102;-71
2022/06/21 09:11:26;;;;;;;8.10;3.45;;;21.20;96.50;;;;;;5061403;28;20021;-71
2022/06/21 09:14:10;;;;;;;7.30;3.55;;;21.20;96.00;;;;;;5070886;28;20040;-71
2022/06/21 09:17:11;;;;;;;8.15;3.80;;;21.20;96.90;;;;;;5056065;28;20377;-71
2022/06/21 09:19:52;;;;;;;5.45;3.72;;;21.20;97.20;;;;;;5049574;28;20478;-72
2022/06/21 09:22:53;;;;;;;6.43;3.33;;;21.30;97.10;;;;;;5042418;28;20081;-72
2022/06/21 09:25:56;;;;;;;7.45;3.70;;;21.50;96.50;;;;;;5059415;28;20428;-71
2022/06/21 09:28:51;;;;;;;9.50;3.88;;;21.60;97.90;;;;;;5043344;28;20377;-71
2022/06/21 09:31:48;;;;;;;5.63;3.90;;;21.40;96.10;;;;;;5062400;28;20108;-70
2022/06/21 09:34:34;;;;;;;5.25;3.30;;;21.50;95.50;;;;;;5040608;28;20073;-71
2022/06/21 09:37:22;;;;;;;7.00;4.13;;;21.60;96.50;;;;;;5061847;28;20037;-72
2022/06/21 09:40:20;;;;;;;5.70;3.67;;;21.70;95.30;;;;;;5044933;28;20040;-70
2022/06/21 09:43:00;;;;;;;5.13;3.55;;;21.50;95.50;;;;;;5049332;28;20076;-71
2022/06/21 09:45:45;;;;;;;6.45;3.45;;;21.40;95.40;;;;;;5055453;28;20102;-71
2022/06/21 09:48:41;;;;;;;5.80;3.97;;;21.40;96.20;;;;;;5044970;28;20012;-70
2022/06/21 09:51:32;;;;;;;5.05;4.07;;;21.40;96.30;;;;;;5064011;28;20029;-71
2022/06/21 09:54:23;;;;;;;4.85;2.95;;;21.30;96.30;;;;;;5052877;28;20021;-71
2022/06/21 09:57:16;;;;;;;4.10;3.70;;;21.30;96.90;;;;;;5065774;28;20025;-71
2022/06/21 10:00:10;;;;;;;9.23;3.80;;;21.20;96.30;;;;;;5050061;28;20057;-70
2022/06/21 10:02:52;;;;;;;9.35;3.55;;;21.20;95.80;;;;;;5055607;28;20431;-71
2022/06/21 10:05:31;;;;;;;6.45;3.20;;;21.30;96.00;;;;;;5059097;28;20036;-71
2022/06/21 10:08:17;;;;;;;5.68;3.10;;;21.30;96.80;;;;;;5055361;28;20071;-70
2022/06/21 10:10:58;;;;;;;4.78;3.30;;;21.30;96.80;;;;;;5065043;28;20131;-71
2022/06/21 10:13:41;;;;;;;7.75;3.75;;;21.40;97.50;;;;;;5066572;28;20415;-70
2022/06/21 10:16:19;;;;;;;4.35;3.72;;;21.40;97.60;;;;;;5055815;28;20387;-70
2022/06/21 10:18:59;;;;;;;7.43;3.30;;;21.40;96.40;;;;;;5043330;28;20359;-71
2022/06/21 10:21:37;;;;;;;6.43;3.78;;;21.40;96.50;;;;;;5043843;28;20077;-71
2022/06/21 10:24:33;;;;;;;8.13;3.80;;;21.40;96.30;;;;;;5052198;28;20022;-71
2022/06/21 10:27:20;;;;;;;10.07;3.70;;;21.40;95.50;;;;;;5057083;28;20119;-70
2022/06/21 10:30:01;;;;;;;6.93;3.67;;;21.50;96.80;;;;;;5054274;28;20126;-70
2022/06/21 10:33:12;;;;;;;5.70;3.45;;;21.60;95.80;;;;;;5052346;28;20033;-71
2022/06/21 10:36:04;;;;;;;7.72;3.33;;;21.80;95.90;;;;;;5057251;28;20112;-71
2022/06/21 10:38:29;;;;;;;7.70;2.83;;;21.90;94.80;;;;;;5044165;28;20013;-71
2022/06/21 10:41:25;;;;;;;6.28;3.03;;;21.90;95.00;;;;;;5057485;28;20040;-71
2022/06/21 10:43:54;;;;;;;6.57;2.97;;;21.90;95.00;;;;;;5058382;28;20032;-71
2022/06/21 10:46:49;;;;;;;6.50;2.85;;;21.90;95.40;;;;;;5054612;28;20020;-71
2022/06/21 10:49:45;;;;;;;5.35;3.28;;;21.90;95.20;;;;;;5064248;28;20024;-71
2022/06/21 10:52:33;;;;;;;9.18;3.45;;;22.00;95.40;;;;;;5050234;28;20385;-70
2022/06/21 10:55:24;;;;;;;5.72;3.50;;;21.90;94.30;;;;;;5051621;28;20105;-71
2022/06/21 10:57:59;;;;;;;3.80;3.15;;;21.90;95.40;;;;;;5049649;28;20055;-71
2022/06/21 11:04:12;;;;;;;6.32;3.25;;;22.10;94.60;;;;;;5058335;28;20052;-70
2022/06/21 11:07:08;;;;;;;7.20;3.80;;;22.30;94.80;;;;;;5047529;28;20033;-70
2022/06/21 11:09:49;;;;;;;7.80;3.55;;;22.60;94.10;;;;;;5046607;28;20030;-70
2022/06/21 11:15:41;;;;;;;9.18;3.42;;;23.30;94.70;;;;;;5044711;28;20151;-71
2022/06/21 11:18:25;;;;;;;8.38;4.10;;;23.30;93.80;;;;;;5046244;28;20028;-71
2022/06/21 11:21:02;;;;;;;8.80;4.13;;;23.30;93.30;;;;;;5043086;28;20068;-71
2022/06/21 11:23:43;;;;;;;5.80;3.08;;;23.00;93.00;;;;;;5046502;28;20049;-71
2022/06/21 11:26:33;;;;;;;7.18;3.58;;;23.00;94.10;;;;;;5047971;28;20059;-70
2022/06/21 11:29:33;;;;;;;6.68;4.22;;;22.80;94.00;;;;;;5047111;28;20018;-71
2022/06/21 11:32:38;;;;;;;5.45;4.35;;;22.90;93.10;;;;;;5047301;28;20037;-71
2022/06/21 11:35:19;;;;;;;5.47;3.45;;;22.90;93.30;;;;;;5054700;28;20036;-70
2022/06/21 11:38:19;;;;;;;7.95;4.00;;;22.80;92.50;;;;;;5045837;28;20485;-71
2022/06/21 11:41:00;;;;;;;8.77;4.28;;;23.00;93.50;;;;;;5047404;28;20039;-71
2022/06/21 11:43:31;;;;;;;6.78;3.95;;;23.00;92.70;;;;;;5060702;28;20351;-71
2022/06/21 11:46:00;;;;;;;5.22;3.40;;;23.10;92.30;;;;;;5043562;28;20045;-71
2022/06/21 11:49:03;;;;;;;7.05;3.35;;;23.20;92.70;;;;;;5047325;28;20443;-71
2022/06/21 11:51:43;;;;;;;5.85;3.65;;;23.80;92.60;;;;;;5051054;28;20037;-70
2022/06/21 11:54:21;;;;;;;7.20;3.72;;;24.30;92.40;;;;;;5063408;28;20081;-70
2022/06/21 11:57:08;;;;;;;5.25;3.28;;;24.60;91.00;;;;;;5065318;28;20029;-71
2022/06/21 11:59:41;;;;;;;6.43;3.80;;;24.90;91.10;;;;;;5054565;28;20071;-71
2022/06/21 12:02:34;;;;;;;7.25;3.20;;;24.80;90.40;;;;;;5055079;28;20040;-71
2022/06/21 12:05:21;;;;;;;7.53;3.00;;;24.70;90.20;;;;;;5054088;28;20123;-71
2022/06/21 12:08:02;;;;;;;6.35;3.20;;;24.50;90.70;;;;;;5059183;28;20137;-71
2022/06/21 12:11:08;;;;;;;5.68;3.55;;;24.60;90.50;;;;;;5061068;28;20046;-71
2022/06/21 12:13:58;;;;;;;5.80;3.28;;;25.00;91.70;;;;;;5043565;28;20049;-71
2022/06/21 12:16:26;;;;;;;5.85;3.33;;;24.90;91.70;;;;;;5061085;28;20043;-71
2022/06/21 12:18:57;;;;;;;6.82;2.63;;;24.90;88.40;;;;;;5054201;28;20399;-71
2022/06/21 12:21:28;;;;;;;6.25;3.00;;;24.60;89.20;;;;;;5061223;28;20039;-71
2022/06/21 12:23:57;;;;;;;7.45;3.30;;;24.30;90.50;;;;;;5051881;28;20029;-71
2022/06/21 12:26:26;;;;;;;8.60;3.42;;;24.20;90.50;;;;;;5059980;28;20024;-71
2022/06/21 12:28:57;;;;;;;4.75;2.75;;;24.20;90.90;;;;;;5054836;28;20017;-70
2022/06/21 12:31:34;;;;;;;6.07;2.95;;;24.20;90.90;;;;;;5056376;28;20381;-71
2022/06/21 12:34:15;;;;;;;8.05;3.45;;;24.00;91.10;;;;;;5053053;28;20033;-71
2022/06/21 12:36:50;;;;;;;5.05;3.90;;;24.20;91.20;;;;;;5058982;28;20308;-71
2022/06/21 12:39:18;;;;;;;6.75;3.53;;;24.00;90.70;;;;;;5052636;28;20064;-71
2022/06/21 12:42:11;;;;;;;5.30;2.83;;;23.90;90.10;;;;;;5051074;28;20062;-71
2022/06/21 12:44:39;;;;;;;;;;;23.80;91.60;;;;;;5062511;28;20033;-71
2022/06/21 12:47:17;;;;;;;10.43;4.05;;;23.70;92.10;;;;;;5049274;28;20400;-71
2022/06/21 12:50:03;;;;;;;7.80;2.58;;;23.50;91.00;;;;;;5060477;28;20108;-71
2022/06/21 12:52:54;;;;;;;3.13;2.10;;;23.30;92.50;;;;;;5062698;28;20091;-71
2022/06/21 12:55:44;;;;;;;7.22;2.58;;;23.30;93.00;;;;;;5053736;28;20044;-71
2022/06/21 12:58:21;;;;;;;5.03;2.72;;;23.30;92.50;;;;;;5055809;28;20500;-71
2022/06/21 13:00:53;;;;;;;3.75;2.30;;;23.40;92.00;;;;;;5050370;28;20105;-71
2022/06/21 13:03:51;;;;;;;6.37;2.60;;;23.30;92.00;;;;;;5048140;28;20064;-71
2022/06/21 13:06:47;;;;;;;7.63;2.60;;;23.20;91.90;;;;;;5049820;28;20037;-71
2022/06/21 13:09:13;;;;;;;5.25;2.47;;;23.30;92.20;;;;;;5057655;28;20032;-70
2022/06/21 13:12:09;;;;;;;7.20;2.90;;;23.30;91.90;;;;;;5056591;28;20037;-71
2022/06/21 13:14:38;;;;;;;9.05;3.05;;;23.30;91.50;;;;;;5043011;28;20030;-71
2022/06/21 13:17:40;;;;;;;7.00;2.20;;;23.20;91.90;;;;;;5050446;28;20063;-71
2022/06/21 13:20:14;;;;;;;6.88;3.10;;;23.10;92.90;;;;;;5052106;28;20587;-71
2022/06/21 13:22:53;;;;;;;7.40;2.60;;;23.10;91.60;;;;;;5051620;28;20052;-72
2022/06/21 13:25:44;;;;;;;4.82;2.30;;;23.10;92.70;;;;;;5050174;28;20021;-71
2022/06/21 13:28:38;;;;;;;5.90;3.17;;;23.00;92.60;;;;;;5048771;28;20029;-72
2022/06/21 13:31:10;;;;;;;5.85;2.80;;;23.10;92.70;;;;;;5052712;28;20037;-71
2022/06/21 13:33:37;;;;;;;8.38;2.40;;;23.00;93.60;;;;;;5048852;28;20032;-71
2022/06/21 13:36:20;;;;;;;5.07;2.70;;;23.10;93.20;;;;;;5049798;28;20038;-71
2022/06/21 13:38:54;;;;;;;4.93;2.80;;;23.10;93.10;;;;;;5045859;28;20458;-72
2022/06/21 13:44:53;;;;;;;8.85;2.60;;;23.10;93.30;;;;;;5053501;28;20039;-70
2022/06/21 13:47:24;;;;;;;7.18;2.47;;;23.20;93.60;;;;;;5053795;28;20123;-71
2022/06/21 13:50:18;;;;;;;5.38;2.88;;;23.10;93.70;;;;;;5057784;28;20032;-71
2022/06/21 13:53:10;;;;;;;6.00;3.42;;;23.30;92.80;;;;;;5055558;28;20034;-71
2022/06/21 13:55:58;;;;;;;5.30;2.67;;;23.40;91.50;;;;;;5062175;28;20085;-71
2022/06/21 13:58:32;;;;;;;4.82;3.40;;;23.40;92.80;;;;;;5053624;28;20291;-71
2022/06/21 14:01:16;;;;;;;5.43;3.10;;;23.50;90.70;;;;;;5049809;28;20033;-71